Metar Aviation Weather Data KPWM

54°F Temp
36°F Dewpoint
% Humidity
Temperature
8 MPH
13 KM/H
7 KTS
360°
Due North

Wind Speed
Overcast
Conditions
Pressure 1021.32 (hPa) - 30.16 (in)
Visibility 9.9 (mi) - 16 (km)

Current Conditions
KPWM
Metar :KPWM 221251Z 36007KT 10SM OVC200 12/02 A3016 RMK AO2 SLP213 T01170017
Tue 22nd September 08:51 am

  Metar Aviation API Data Provided by https://www.checkwx.com/ PHP scripts by weather34.com ©2020